ADDS TAF Board (Experimental) INFO Settings

IDs: Format: Expanded Condensed

KIAH - Houston/Bush Intl, TX, US

Issued at 1720 UTC 06 Mar 2015
Updated at: 2002 UTC 06 Mar 2015
Time1953Z 06/21Z 06/22Z 06/23Z 07/00Z 07/01Z 07/02Z 07/03Z 07/04Z 07/05Z 07/06Z 07/07Z 07/08Z 07/09Z
Type OBS PRVL PRVL PRVL PRVL PRVL PRVL PRVL PRVL PRVL PRVL PRVL PRVL PRVL
VIS 10 >6 >6 >6 >6 >6 >6 >6 >6 >6 >6 >6 >6 >6
CIG 250 -- -- -- -- -- -- -- -- -- -- -- -- --
Cover BKN SCT SCT SCT SCT SCT FEW FEW FEW FEW FEW FEW FEW FEW
FltCat VFR VFR VFR VFR VFR VFR VFR VFR VFR VFR VFR VFR VFR VFR
WX -- -- -- -- -- -- -- -- -- -- -- -- -- --
WDir VRB 50 50 50 50 50 VRB VRB VRB VRB VRB VRB VRB VRB
WSpd 6 7 7 7 7 7 0 0 0 0 0 0 0 0
WGst -- -- -- -- -- -- -- -- -- -- -- -- -- --
R08/26
XWnd VRB 4 4 4 4 4 VRB VRB VRB VRB VRB VRB VRB VRB
HWnd VRB 5 5 5 5 5 VRB VRB VRB VRB VRB VRB VRB VRB
R09/27
XWnd VRB 4 4 4 4 4 VRB VRB VRB VRB VRB VRB VRB VRB
HWnd VRB 5 5 5 5 5 VRB VRB VRB VRB VRB VRB VRB VRB
R15/33
XWnd VRB 7 7 7 7 7 VRB VRB VRB VRB VRB VRB VRB VRB
HWnd VRB -1 -1 -1 -1 -1 VRB VRB VRB VRB VRB VRB VRB VRB

NOTE: TEMPO conditions in [brackets]. Keep in mind TEMPO conditions might be better (lower impact) than prevailing conditions.

Raw TAF
KIAH 061720Z 0618/0724 05007KT P6SM SCT250
  FM070200 00000KT P6SM FEW250
  FM071500 09006KT P6SM SCT250


Raw METAR
KIAH 061953Z VRB06KT 10SM BKN250 11/M08 A3050 RMK AO2 SLP329 T01111078
KIAH 061853Z 36003KT 10SM BKN250 10/M08 A3055 RMK AO2 SLP344 T01001078
KIAH 061753Z 07004KT 10SM BKN250 09/M07 A3058 RMK AO2 SLP357 T00891072 10089 21011 58010

METAR Board
Radar Display
Forecast Discussion

TAF Board Legend

Potential Impact
Threat None Slight Moderate High
Visibility (sm) ≥5.1 5.1>X≥3 3>X≥1 <1
Ceiling (100 ft) ≥30.1 30.1>X≥10 10>X≥5 <5
Wind Speed (kt) <10 10≤X<20 20≤X<30 ≥30
Wind Gust (kt) <15 15≤X<25 25≤X<35 ≥35
Weather No Wx Reported VCTS,-TS,-FZRA,SN TS,FZRA +TS,+FZRA,+SN